Terminal Aerodrome Forecast
Issued by NWS Springfield, MO

Home | Current Version | Previous Version | Text Only | Print | Product List | Glossary On
Versions: 1 2 3 4 5 6 7 8 9 10 11 12 13 14 15 16
405
FTUS43 KSGF 242322
TAFSGF
TAF
KSGF 242322Z 2500/2524 35005KT P6SM SKC
     FM250900 VRB03KT P6SM SCT090
     FM251900 32006KT P6SM SCT200=

USA.gov is the U.S. government's official web portal to all federal, state and local government web resources and services.